Time;durP1;ratioP1;P1;durP2;ratioP2;P2;SDS_P1;SDS_P2;PMS_P1;PMS_P2;Temp;Humidity;BMP_temperature;BMP_pressure;BME280_temperature;BME280_humidity;BME280_pressure;Samples;Min_cycle;Max_cycle;Signal;HPM_P1;HPM_P2
2023/09/23 00:00:57;;;;;;;0.87;0.50;;;15.20;99.90;;;;;;5034305;28;20282;-60
2023/09/23 00:03:25;;;;;;;1.63;0.50;;;15.00;99.90;;;;;;5034575;28;20226;-60
2023/09/23 00:05:53;;;;;;;1.83;0.40;;;15.00;99.90;;;;;;5033912;28;20209;-61
2023/09/23 00:08:20;;;;;;;0.88;0.57;;;14.90;99.90;;;;;;5034572;28;20594;-58
2023/09/23 00:10:50;;;;;;;1.83;0.77;;;14.80;99.90;;;;;;5034422;28;20209;-60
2023/09/23 00:13:18;;;;;;;2.53;0.65;;;14.80;99.90;;;;;;5034372;28;20222;-60
2023/09/23 00:15:44;;;;;;;2.35;0.60;;;14.70;99.90;;;;;;5033720;28;20210;-60
2023/09/23 00:18:17;;;;;;;0.50;0.40;;;14.70;99.90;;;;;;5034217;28;20206;-60
2023/09/23 00:20:44;;;;;;;2.92;0.80;;;14.70;99.90;;;;;;5034033;28;20228;-59
2023/09/23 00:23:12;;;;;;;0.80;0.50;;;14.60;99.90;;;;;;5033752;28;20280;-59
2023/09/23 00:25:39;;;;;;;0.67;0.40;;;14.60;99.90;;;;;;5033706;28;20206;-60
2023/09/23 00:28:10;;;;;;;0.77;0.50;;;14.60;99.90;;;;;;5034056;28;20413;-60
2023/09/23 00:30:37;;;;;;;0.85;0.70;;;14.70;99.90;;;;;;5034157;28;20348;-60
2023/09/23 00:33:05;;;;;;;4.70;2.90;;;14.60;99.90;;;;;;5033631;28;20582;-60
2023/09/23 00:35:34;;;;;;;1.50;0.70;;;14.60;99.90;;;;;;5033610;28;20285;-60
2023/09/23 00:38:01;;;;;;;1.73;0.60;;;14.60;99.90;;;;;;5033714;28;20297;-60
2023/09/23 00:40:32;;;;;;;2.10;0.67;;;14.60;99.90;;;;;;5033802;28;20222;-60
2023/09/23 00:43:11;;;;;;;1.03;0.50;;;14.60;99.90;;;;;;5025813;28;20229;-61
2023/09/23 00:45:39;;;;;;;2.27;0.43;;;14.50;99.90;;;;;;5032961;28;20206;-60
2023/09/23 00:48:08;;;;;;;3.17;1.10;;;14.40;99.90;;;;;;5033706;28;20199;-60
2023/09/23 00:50:35;;;;;;;2.40;0.80;;;14.50;99.90;;;;;;5033201;28;20209;-60
2023/09/23 00:53:04;;;;;;;0.50;0.50;;;14.40;99.90;;;;;;5033136;28;20230;-60
2023/09/23 00:55:40;;;;;;;1.57;0.40;;;14.40;99.90;;;;;;5033200;28;20347;-59
2023/09/23 00:58:07;;;;;;;2.00;0.40;;;14.40;99.90;;;;;;5026811;28;20319;-61
2023/09/23 01:00:36;;;;;;;0.90;0.40;;;14.30;99.90;;;;;;5032410;28;20222;-60
2023/09/23 01:03:03;;;;;;;0.53;0.43;;;14.30;99.90;;;;;;5033252;28;20230;-61
2023/09/23 01:05:30;;;;;;;0.80;0.50;;;14.30;99.90;;;;;;5033423;28;20206;-60
2023/09/23 01:08:11;;;;;;;1.30;0.60;;;14.20;99.90;;;;;;5025273;28;20297;-61
2023/09/23 01:10:39;;;;;;;1.80;0.60;;;14.20;99.90;;;;;;5033287;28;20222;-60
2023/09/23 01:13:16;;;;;;;1.63;0.40;;;14.00;99.90;;;;;;5033244;28;20218;-60
2023/09/23 01:15:43;;;;;;;2.40;0.40;;;13.90;99.90;;;;;;5032985;28;20229;-60
2023/09/23 01:18:14;;;;;;;0.77;0.33;;;13.90;99.90;;;;;;5032855;28;20210;-60
2023/09/23 01:20:41;;;;;;;1.33;0.60;;;13.80;99.90;;;;;;5033030;28;20338;-60
2023/09/23 01:23:10;;;;;;;0.73;0.40;;;13.70;99.90;;;;;;5032866;28;20309;-60
2023/09/23 01:25:37;;;;;;;2.73;0.50;;;13.70;99.90;;;;;;5032547;28;20206;-59
2023/09/23 01:28:08;;;;;;;1.47;0.60;;;13.70;99.90;;;;;;5033092;28;20260;-58
2023/09/23 01:30:35;;;;;;;1.07;0.70;;;13.70;99.90;;;;;;5032628;28;20202;-60
2023/09/23 01:33:04;;;;;;;3.10;0.67;;;13.60;99.90;;;;;;5032992;28;20247;-58
2023/09/23 01:35:32;;;;;;;0.87;0.40;;;13.60;99.90;;;;;;5032636;28;20203;-61
2023/09/23 01:37:59;;;;;;;1.23;0.73;;;13.70;99.90;;;;;;5032807;28;20229;-60
2023/09/23 01:40:29;;;;;;;0.57;0.40;;;13.70;99.90;;;;;;5032799;28;20226;-60
2023/09/23 01:42:57;;;;;;;0.60;0.53;;;13.80;99.90;;;;;;5032764;28;20312;-60
2023/09/23 01:45:25;;;;;;;1.77;0.70;;;13.80;99.90;;;;;;5032165;28;20210;-59
2023/09/23 01:47:56;;;;;;;1.10;0.50;;;13.80;99.90;;;;;;5032449;28;20722;-59
2023/09/23 01:50:23;;;;;;;1.47;0.60;;;13.80;99.90;;;;;;5032654;28;20206;-60
2023/09/23 01:52:51;;;;;;;3.40;0.90;;;13.60;99.90;;;;;;5056533;22;20240;-62
2023/09/23 01:55:18;;;;;;;1.40;0.60;;;13.60;99.90;;;;;;5052119;28;20229;-63
2023/09/23 01:57:47;;;;;;;3.27;0.90;;;13.50;99.90;;;;;;5052354;28;20572;-63
2023/09/23 02:00:22;;;;;;;0.70;0.60;;;13.50;99.90;;;;;;5052508;28;20316;-63
2023/09/23 02:02:48;;;;;;;0.87;0.60;;;13.40;99.90;;;;;;5051457;28;20228;-63
2023/09/23 02:05:18;;;;;;;2.10;0.90;;;13.40;99.90;;;;;;5032155;28;20214;-63
2023/09/23 02:07:46;;;;;;;1.53;0.60;;;13.30;99.90;;;;;;5032347;28;20305;-63
2023/09/23 02:10:15;;;;;;;2.40;0.80;;;13.20;99.90;;;;;;5032386;28;20208;-63
2023/09/23 02:12:42;;;;;;;0.70;0.40;;;13.20;99.90;;;;;;5031013;28;20596;-63
2023/09/23 02:15:10;;;;;;;1.43;0.40;;;13.30;99.90;;;;;;5032259;28;20606;-63
2023/09/23 02:17:37;;;;;;;1.10;0.40;;;13.30;99.90;;;;;;5033036;28;20679;-63
2023/09/23 02:20:09;;;;;;;0.63;0.40;;;13.40;99.90;;;;;;5032063;28;20218;-64
2023/09/23 02:22:37;;;;;;;0.80;0.57;;;13.40;99.90;;;;;;5031638;28;20217;-63
2023/09/23 02:25:07;;;;;;;0.50;0.50;;;13.50;99.90;;;;;;5031601;28;20218;-63
2023/09/23 02:27:34;;;;;;;0.93;0.40;;;13.50;99.90;;;;;;5031897;28;20207;-63
2023/09/23 02:30:02;;;;;;;0.50;0.33;;;13.50;99.90;;;;;;5024060;28;20199;-63
2023/09/23 02:32:30;;;;;;;0.60;0.53;;;13.40;99.90;;;;;;5031772;28;20290;-63
2023/09/23 02:34:57;;;;;;;0.77;0.43;;;13.40;99.90;;;;;;5031449;28;20326;-63
2023/09/23 02:37:26;;;;;;;1.13;0.50;;;13.40;99.90;;;;;;5031489;28;20206;-63
2023/09/23 02:39:53;;;;;;;1.07;0.97;;;13.40;99.90;;;;;;5031569;28;20218;-63
2023/09/23 02:42:20;;;;;;;1.43;0.70;;;13.40;99.90;;;;;;5031634;28;20281;-63
2023/09/23 02:44:47;;;;;;;1.57;0.53;;;13.40;99.90;;;;;;5031111;28;20229;-63
2023/09/23 02:47:15;;;;;;;3.23;0.40;;;13.40;99.90;;;;;;5031613;28;20542;-63
2023/09/23 02:49:44;;;;;;;0.77;0.40;;;13.40;99.90;;;;;;5031250;28;20202;-63
2023/09/23 02:52:11;;;;;;;2.70;0.63;;;13.50;99.90;;;;;;5031599;28;20207;-63
2023/09/23 02:54:38;;;;;;;1.90;0.63;;;13.40;99.90;;;;;;5031153;28;20229;-63
2023/09/23 02:57:08;;;;;;;0.30;0.30;;;13.30;99.90;;;;;;5031877;28;20664;-63
2023/09/23 02:59:41;;;;;;;1.10;0.60;;;13.20;99.90;;;;;;5031924;28;20293;-63
2023/09/23 03:02:09;;;;;;;0.80;0.53;;;13.10;99.90;;;;;;5024574;28;20195;-62
2023/09/23 03:04:36;;;;;;;0.40;0.40;;;13.10;99.90;;;;;;5031168;28;20288;-62
2023/09/23 03:07:06;;;;;;;0.50;0.30;;;13.00;99.90;;;;;;5031478;28;20208;-62
2023/09/23 03:09:33;;;;;;;1.33;0.53;;;13.00;99.90;;;;;;5031356;28;20213;-62
2023/09/23 03:12:01;;;;;;;1.13;0.50;;;13.00;99.90;;;;;;5031060;28;20697;-62
2023/09/23 03:14:36;;;;;;;1.13;0.50;;;12.90;99.90;;;;;;5030900;28;20771;-62
2023/09/23 03:17:03;;;;;;;0.70;0.30;;;12.90;99.90;;;;;;5023356;28;20237;-62
2023/09/23 03:19:32;;;;;;;0.93;0.60;;;12.90;99.90;;;;;;5031199;28;20206;-62
2023/09/23 03:22:00;;;;;;;0.67;0.57;;;12.90;99.90;;;;;;5030726;28;20264;-63
2023/09/23 03:24:30;;;;;;;0.40;0.40;;;12.80;99.90;;;;;;5030375;28;20274;-63
2023/09/23 03:26:59;;;;;;;3.37;0.80;;;12.80;99.90;;;;;;5030874;28;20321;-62
2023/09/23 03:29:28;;;;;;;0.97;0.60;;;12.80;99.90;;;;;;5031152;28;20252;-63
2023/09/23 03:31:55;;;;;;;3.00;0.50;;;12.70;99.90;;;;;;5031039;28;20243;-62
2023/09/23 03:34:21;;;;;;;0.63;0.50;;;12.20;99.90;;;;;;5030491;28;20230;-62
2023/09/23 03:36:49;;;;;;;0.30;0.30;;;12.70;99.90;;;;;;5031030;28;20730;-62
2023/09/23 03:39:17;;;;;;;0.57;0.53;;;12.80;99.90;;;;;;5031160;28;20210;-62
2023/09/23 03:41:46;;;;;;;2.77;0.40;;;12.70;99.90;;;;;;5030370;28;20773;-62
2023/09/23 03:44:14;;;;;;;1.30;0.50;;;12.70;99.90;;;;;;5031101;28;20226;-62
2023/09/23 03:46:41;;;;;;;0.80;0.60;;;12.70;99.90;;;;;;5030960;28;20214;-62
2023/09/23 03:49:08;;;;;;;2.40;0.50;;;12.70;99.90;;;;;;5031272;28;20209;-63
2023/09/23 03:51:36;;;;;;;0.83;0.50;;;12.70;99.90;;;;;;5031197;28;20209;-62
2023/09/23 03:54:04;;;;;;;0.90;0.40;;;12.70;99.90;;;;;;5030582;28;20288;-62
2023/09/23 03:56:33;;;;;;;3.70;1.10;;;12.70;99.90;;;;;;5030489;28;20207;-62
2023/09/23 03:59:01;;;;;;;0.67;0.60;;;12.70;99.90;;;;;;5030695;28;20202;-63
2023/09/23 04:01:28;;;;;;;0.60;0.50;;;12.70;99.90;;;;;;5030885;28;20222;-63
2023/09/23 04:03:56;;;;;;;1.00;0.57;;;12.60;99.90;;;;;;5030160;28;20743;-63
2023/09/23 04:06:23;;;;;;;1.00;0.53;;;12.60;99.90;;;;;;5030560;28;20202;-63
2023/09/23 04:08:50;;;;;;;0.97;0.40;;;12.60;99.90;;;;;;5030356;28;20208;-62
2023/09/23 04:11:18;;;;;;;1.83;0.60;;;12.60;99.90;;;;;;5030459;28;20695;-63
2023/09/23 04:13:46;;;;;;;0.70;0.53;;;12.50;99.90;;;;;;5030376;28;20761;-62
2023/09/23 04:16:15;;;;;;;1.67;1.20;;;12.50;99.90;;;;;;5030593;28;20202;-62
2023/09/23 04:18:42;;;;;;;2.33;0.70;;;12.40;99.90;;;;;;5030324;28;20624;-63
2023/09/23 04:21:09;;;;;;;0.93;0.50;;;12.30;99.90;;;;;;5030317;28;20239;-63
2023/09/23 04:23:36;;;;;;;0.97;0.57;;;12.30;99.90;;;;;;5030343;28;20261;-62
2023/09/23 04:26:03;;;;;;;1.17;0.80;;;12.30;99.90;;;;;;5022283;28;20202;-62
2023/09/23 04:28:30;;;;;;;1.07;0.70;;;12.30;99.90;;;;;;5030499;28;20202;-63
2023/09/23 04:30:57;;;;;;;1.43;0.80;;;12.30;99.90;;;;;;5030247;28;20668;-62
2023/09/23 04:33:27;;;;;;;2.30;1.60;;;12.20;99.90;;;;;;5030288;28;20230;-62
2023/09/23 04:35:55;;;;;;;2.13;1.63;;;12.20;99.90;;;;;;5031588;28;20206;-64
2023/09/23 04:38:22;;;;;;;2.80;1.73;;;12.20;99.90;;;;;;5034374;28;20218;-64
2023/09/23 04:40:49;;;;;;;11.07;6.87;;;12.10;99.90;;;;;;5034210;28;20309;-64
2023/09/23 04:43:16;;;;;;;24.53;15.13;;;12.20;99.90;;;;;;5034340;28;20226;-64
2023/09/23 04:45:45;;;;;;;28.23;17.00;;;12.10;99.90;;;;;;5033915;28;20648;-63
2023/09/23 04:48:11;;;;;;;53.33;33.70;;;12.10;99.90;;;;;;5034304;28;20724;-63
2023/09/23 04:50:41;;;;;;;46.13;28.90;;;12.10;99.90;;;;;;5033927;28;20585;-64
2023/09/23 04:53:08;;;;;;;9.77;7.00;;;12.20;99.90;;;;;;5026070;28;20244;-63
2023/09/23 04:55:35;;;;;;;5.70;2.33;;;12.10;99.90;;;;;;5033642;28;20308;-64
2023/09/23 04:58:02;;;;;;;2.03;1.47;;;12.10;99.90;;;;;;5033523;28;20209;-64
2023/09/23 05:00:32;;;;;;;1.27;0.97;;;12.20;99.90;;;;;;5033410;28;20206;-64
2023/09/23 05:02:59;;;;;;;1.10;0.67;;;12.10;99.90;;;;;;5033309;28;20297;-64
2023/09/23 05:05:26;;;;;;;11.47;8.03;;;12.10;99.90;;;;;;5033449;28;20214;-63
2023/09/23 05:07:54;;;;;;;19.70;13.30;;;12.10;99.90;;;;;;5033355;28;20654;-63
2023/09/23 05:10:21;;;;;;;6.93;4.80;;;12.20;99.90;;;;;;5033491;28;20298;-63
2023/09/23 05:12:47;;;;;;;4.27;1.70;;;12.10;99.90;;;;;;5033211;28;20225;-63
2023/09/23 05:15:15;;;;;;;7.23;4.27;;;12.10;99.90;;;;;;5033051;28;20218;-63
2023/09/23 05:17:43;;;;;;;4.70;1.37;;;12.10;99.90;;;;;;5032960;28;20672;-63
2023/09/23 05:20:14;;;;;;;2.30;1.70;;;12.20;99.90;;;;;;5033170;28;20682;-63
2023/09/23 05:22:40;;;;;;;4.40;2.67;;;12.20;99.90;;;;;;5033104;28;20648;-63
2023/09/23 05:25:11;;;;;;;2.50;1.60;;;12.30;99.90;;;;;;5032763;28;20249;-63
2023/09/23 05:27:38;;;;;;;1.93;1.20;;;12.40;99.90;;;;;;5033059;28;20630;-63
2023/09/23 05:30:08;;;;;;;3.30;2.20;;;12.40;99.90;;;;;;5032928;28;20280;-63
2023/09/23 05:32:35;;;;;;;2.57;0.90;;;12.50;99.90;;;;;;5033291;28;20280;-63
2023/09/23 05:35:02;;;;;;;2.17;1.43;;;12.60;99.90;;;;;;5032615;28;20226;-63
2023/09/23 05:37:29;;;;;;;1.93;1.20;;;12.70;99.90;;;;;;5033121;28;20400;-61
2023/09/23 05:39:55;;;;;;;2.40;1.70;;;12.80;99.90;;;;;;5032974;28;20202;-61
2023/09/23 05:42:25;;;;;;;2.93;0.90;;;12.90;99.90;;;;;;5032725;28;20231;-61
2023/09/23 05:44:52;;;;;;;1.37;1.00;;;12.90;99.90;;;;;;5032644;28;20668;-61
2023/09/23 05:47:19;;;;;;;4.23;1.00;;;13.10;99.90;;;;;;5032879;28;20317;-61
2023/09/23 05:49:46;;;;;;;0.87;0.73;;;13.10;99.90;;;;;;5032719;28;20680;-61
2023/09/23 05:52:14;;;;;;;1.83;1.10;;;13.20;99.90;;;;;;5032925;28;20694;-61
2023/09/23 05:54:41;;;;;;;1.60;1.10;;;13.30;99.90;;;;;;5032336;28;20295;-61
2023/09/23 05:57:08;;;;;;;2.93;0.90;;;13.40;99.90;;;;;;5032852;28;20206;-61
2023/09/23 05:59:36;;;;;;;2.50;1.20;;;13.50;99.90;;;;;;5032821;28;20206;-61
2023/09/23 06:02:06;;;;;;;2.80;0.60;;;13.60;99.90;;;;;;5032486;28;20226;-61
2023/09/23 06:04:32;;;;;;;1.50;0.70;;;13.80;99.90;;;;;;5032600;28;20543;-62
2023/09/23 06:06:59;;;;;;;1.90;0.70;;;13.90;99.90;;;;;;5032443;28;20210;-62
2023/09/23 06:09:26;;;;;;;2.80;2.07;;;14.00;99.90;;;;;;5032272;28;20206;-61
2023/09/23 06:11:54;;;;;;;2.57;1.70;;;14.20;99.90;;;;;;5032069;28;20246;-61
2023/09/23 06:14:21;;;;;;;2.57;1.13;;;14.50;99.90;;;;;;5031814;28;20233;-62
2023/09/23 06:16:49;;;;;;;2.73;1.00;;;14.80;99.90;;;;;;5032539;28;20214;-61
2023/09/23 06:19:16;;;;;;;1.87;1.00;;;15.10;99.90;;;;;;5032846;28;20238;-61
2023/09/23 06:21:42;;;;;;;3.90;1.20;;;15.60;99.90;;;;;;5031757;28;20222;-61
2023/09/23 06:24:10;;;;;;;3.90;0.80;;;15.90;99.90;;;;;;5031868;28;20729;-61
2023/09/23 06:26:37;;;;;;;1.67;0.83;;;16.10;99.90;;;;;;5032125;28;20234;-61
2023/09/23 06:29:04;;;;;;;1.73;1.05;;;16.30;99.90;;;;;;5032126;28;20209;-62
2023/09/23 06:31:31;;;;;;;0.93;0.52;;;16.50;99.90;;;;;;5032272;28;20199;-62
2023/09/23 06:33:59;;;;;;;2.05;1.15;;;16.70;99.90;;;;;;5031691;28;20226;-61
2023/09/23 06:36:26;;;;;;;3.33;0.60;;;17.10;99.90;;;;;;5031802;28;20206;-62
2023/09/23 06:38:52;;;;;;;0.82;0.70;;;17.40;99.90;;;;;;5031512;28;20290;-62
2023/09/23 06:41:19;;;;;;;3.03;0.70;;;17.70;99.90;;;;;;5031489;28;20711;-62
2023/09/23 06:43:46;;;;;;;1.02;0.88;;;18.20;99.90;;;;;;5031230;28;20611;-61
2023/09/23 06:46:13;;;;;;;3.35;1.50;;;18.70;99.90;;;;;;5031321;28;20229;-61
2023/09/23 06:48:40;;;;;;;7.97;5.22;;;19.40;99.90;;;;;;5031404;28;20221;-62
2023/09/23 06:51:08;;;;;;;2.50;0.90;;;19.80;99.90;;;;;;5031148;28;20206;-61
2023/09/23 06:53:35;;;;;;;1.33;0.80;;;20.10;99.90;;;;;;5030967;28;20230;-62
2023/09/23 06:56:03;;;;;;;1.67;0.90;;;20.50;99.90;;;;;;5031238;28;20211;-62
2023/09/23 06:58:29;;;;;;;2.33;0.80;;;20.80;99.90;;;;;;5031280;28;20570;-65
2023/09/23 07:00:57;;;;;;;1.23;0.85;;;21.00;99.90;;;;;;5031679;28;20210;-62
2023/09/23 07:03:24;;;;;;;2.20;0.80;;;21.10;99.90;;;;;;5031135;28;20848;-61
2023/09/23 07:05:51;;;;;;;1.88;0.70;;;21.00;99.90;;;;;;5031603;28;20293;-61
2023/09/23 07:08:19;;;;;;;2.08;1.08;;;21.20;99.90;;;;;;5031519;28;20210;-61
2023/09/23 07:10:46;;;;;;;2.40;0.70;;;21.70;99.90;;;;;;5031041;28;20210;-61
2023/09/23 07:13:12;;;;;;;1.63;0.73;;;22.30;99.90;;;;;;5030827;28;20712;-62
2023/09/23 07:15:40;;;;;;;3.55;1.08;;;23.00;99.90;;;;;;5030922;28;20272;-61
2023/09/23 07:18:07;;;;;;;1.10;0.70;;;23.60;99.90;;;;;;5031017;28;20202;-60
2023/09/23 07:20:35;;;;;;;1.83;0.90;;;23.90;99.90;;;;;;5031532;28;20285;-61
2023/09/23 07:23:02;;;;;;;1.60;1.00;;;23.90;99.90;;;;;;5030924;28;20229;-66
2023/09/23 07:25:30;;;;;;;4.10;0.82;;;23.90;99.90;;;;;;5030949;28;20210;-64
2023/09/23 07:27:59;;;;;;;2.85;1.00;;;24.40;99.90;;;;;;5030661;28;20215;-63
2023/09/23 07:30:25;;;;;;;0.95;0.63;;;25.10;99.90;;;;;;5031100;28;20216;-61
2023/09/23 07:32:52;;;;;;;1.45;0.68;;;25.50;99.90;;;;;;5030858;28;20202;-61
2023/09/23 07:35:19;;;;;;;1.42;0.70;;;25.70;99.10;;;;;;5030644;28;20214;-63
2023/09/23 07:37:46;;;;;;;3.40;1.30;;;25.80;98.70;;;;;;5030963;28;20215;-62
2023/09/23 07:40:12;;;;;;;2.70;1.95;;;26.00;98.20;;;;;;5031203;28;20654;-65
2023/09/23 07:42:40;;;;;;;2.40;1.00;;;26.10;97.90;;;;;;5030934;28;20229;-63
2023/09/23 07:45:09;;;;;;;1.58;0.70;;;26.20;96.50;;;;;;5029901;28;20811;-64
2023/09/23 07:47:36;;;;;;;1.23;0.63;;;25.70;96.50;;;;;;5030957;28;20618;-66
2023/09/23 07:50:03;;;;;;;2.20;1.00;;;25.10;97.00;;;;;;5030645;28;20206;-60
2023/09/23 07:52:30;;;;;;;2.42;0.80;;;24.30;97.70;;;;;;5031015;28;20213;-61
2023/09/23 07:54:56;;;;;;;1.38;0.60;;;23.40;98.70;;;;;;5059374;22;20320;-62
2023/09/23 07:57:24;;;;;;;1.42;0.70;;;22.50;99.90;;;;;;5050728;28;20220;-63
2023/09/23 08:00:26;;;;;;;2.00;1.15;;;21.50;99.90;;;;;;5050594;28;20241;-60
2023/09/23 08:02:52;;;;;;;11.60;7.60;;;20.70;99.90;;;;;;5048387;28;20228;-58
2023/09/23 08:05:23;;;;;;;4.05;1.02;;;20.10;99.90;;;;;;5022681;28;20230;-60
2023/09/23 08:07:50;;;;;;;3.72;0.85;;;19.60;99.90;;;;;;5019674;28;20691;-59
2023/09/23 08:10:17;;;;;;;1.17;0.52;;;19.10;99.90;;;;;;5024502;28;20203;-58
2023/09/23 08:12:44;;;;;;;1.67;0.85;;;18.70;99.90;;;;;;5026637;28;20206;-63
2023/09/23 08:15:11;;;;;;;2.03;0.68;;;18.50;99.90;;;;;;5025788;28;20226;-62
2023/09/23 08:17:39;;;;;;;1.02;0.75;;;18.40;99.90;;;;;;5034240;28;20206;-62
2023/09/23 08:20:17;;;;;;;2.42;0.52;;;18.20;99.90;;;;;;5034296;28;20560;-62
2023/09/23 08:22:44;;;;;;;0.90;0.60;;;18.20;99.90;;;;;;5033965;28;20650;-60
2023/09/23 08:25:11;;;;;;;1.95;0.95;;;17.90;99.90;;;;;;5025960;28;20281;-62
2023/09/23 08:27:38;;;;;;;2.92;0.85;;;17.70;99.90;;;;;;5034149;28;20213;-61
2023/09/23 08:30:07;;;;;;;1.77;1.10;;;17.70;99.90;;;;;;5033857;28;20210;-58
2023/09/23 08:32:33;;;;;;;2.63;1.42;;;17.50;99.90;;;;;;5034390;28;20297;-55
2023/09/23 08:35:02;;;;;;;2.97;0.85;;;17.50;99.90;;;;;;5033374;28;20672;-57
2023/09/23 08:37:29;;;;;;;0.45;0.43;;;17.50;99.90;;;;;;5034016;28;20210;-56
2023/09/23 08:39:56;;;;;;;2.55;1.10;;;17.60;99.90;;;;;;5033994;28;20648;-55
2023/09/23 08:42:24;;;;;;;4.10;1.17;;;17.70;99.90;;;;;;5033088;28;20237;-61
2023/09/23 08:44:51;;;;;;;2.03;1.02;;;17.80;99.90;;;;;;5033627;28;20236;-58
2023/09/23 08:47:19;;;;;;;3.60;0.80;;;17.80;99.90;;;;;;5033987;28;20268;-59
2023/09/23 08:49:47;;;;;;;3.47;0.80;;;17.90;99.90;;;;;;5033632;28;20206;-63
2023/09/23 08:52:17;;;;;;;2.15;0.90;;;17.90;99.90;;;;;;5033550;28;20206;-57
2023/09/23 08:54:45;;;;;;;1.92;0.82;;;17.80;99.90;;;;;;5032638;28;20241;-57
2023/09/23 08:57:11;;;;;;;3.38;0.98;;;17.70;99.90;;;;;;5025471;28;20205;-57
2023/09/23 08:59:39;;;;;;;1.75;0.70;;;17.80;99.90;;;;;;5033542;28;20585;-57
2023/09/23 09:02:07;;;;;;;4.07;1.00;;;17.80;99.90;;;;;;5033006;28;20617;-58
2023/09/23 09:04:34;;;;;;;2.38;0.80;;;17.70;99.90;;;;;;5033045;28;20317;-59
2023/09/23 09:07:01;;;;;;;2.17;0.90;;;17.70;99.90;;;;;;5032491;28;20210;-60
2023/09/23 09:09:29;;;;;;;1.77;0.80;;;17.80;99.90;;;;;;5032875;28;20238;-58
2023/09/23 09:11:58;;;;;;;2.28;0.77;;;17.90;99.90;;;;;;5033007;28;20202;-58
2023/09/23 09:14:25;;;;;;;2.00;1.00;;;17.90;99.90;;;;;;5033245;28;20284;-59
2023/09/23 09:16:53;;;;;;;1.80;0.80;;;18.00;99.90;;;;;;5032829;28;20209;-59
2023/09/23 09:19:20;;;;;;;3.58;1.35;;;18.00;99.90;;;;;;5032522;28;20590;-59
2023/09/23 09:21:47;;;;;;;2.85;1.05;;;18.00;99.90;;;;;;5032109;28;20660;-60
2023/09/23 09:24:13;;;;;;;3.58;1.48;;;18.10;99.90;;;;;;5032604;28;20249;-59
2023/09/23 09:26:41;;;;;;;2.10;1.17;;;18.20;99.90;;;;;;5032415;28;20710;-57
2023/09/23 09:29:08;;;;;;;2.13;1.10;;;18.30;99.90;;;;;;5032493;28;20204;-58
2023/09/23 09:31:38;;;;;;;4.85;0.85;;;18.40;99.90;;;;;;5032463;28;20210;-60
2023/09/23 09:34:09;;;;;;;3.03;1.40;;;18.40;99.90;;;;;;5032628;28;20230;-58
2023/09/23 09:36:38;;;;;;;2.85;1.02;;;18.50;99.90;;;;;;5032106;28;20268;-56
2023/09/23 09:39:08;;;;;;;2.55;1.13;;;18.50;99.90;;;;;;5032634;28;20260;-62
2023/09/23 09:41:42;;;;;;;2.95;0.88;;;18.60;99.90;;;;;;5032380;28;20289;-56
2023/09/23 09:44:11;;;;;;;3.78;1.65;;;18.60;99.90;;;;;;5031943;28;20232;-56
2023/09/23 09:46:41;;;;;;;4.15;2.10;;;18.70;99.90;;;;;;5032664;28;20221;-57
2023/09/23 09:49:08;;;;;;;4.45;2.30;;;18.80;99.90;;;;;;5032467;28;20218;-56
2023/09/23 09:51:35;;;;;;;1.40;0.77;;;19.00;99.90;;;;;;5032703;28;20668;-56
2023/09/23 09:54:04;;;;;;;2.70;1.20;;;19.20;99.90;;;;;;5032102;28;20340;-55
2023/09/23 09:56:32;;;;;;;4.03;1.10;;;19.40;99.90;;;;;;5031889;28;20225;-56
2023/09/23 09:59:03;;;;;;;2.60;1.48;;;19.50;99.90;;;;;;5032781;28;20206;-58
2023/09/23 10:01:32;;;;;;;2.97;1.13;;;19.70;99.90;;;;;;5032286;28;20211;-61
2023/09/23 10:03:59;;;;;;;1.73;0.88;;;19.90;99.90;;;;;;5032000;28;20603;-59
2023/09/23 10:06:26;;;;;;;4.55;1.13;;;20.00;99.90;;;;;;5032082;28;20207;-57
2023/09/23 10:08:53;;;;;;;3.47;1.08;;;19.90;99.90;;;;;;5031971;28;20233;-58
2023/09/23 10:11:34;;;;;;;2.30;0.85;;;19.70;99.90;;;;;;5031690;28;20210;-58
2023/09/23 10:14:16;;;;;;;3.38;1.27;;;19.70;99.90;;;;;;5031647;28;20226;-59
2023/09/23 10:16:48;;;;;;;7.72;2.38;;;19.90;99.90;;;;;;5032298;28;20210;-55
2023/09/23 10:19:15;;;;;;;1.40;0.80;;;20.00;99.90;;;;;;5032055;28;20229;-55
2023/09/23 10:21:47;;;;;;;2.33;1.17;;;20.10;99.90;;;;;;5031871;28;20241;-58
2023/09/23 10:24:20;;;;;;;3.97;1.15;;;20.30;99.90;;;;;;5023331;28;20313;-55
2023/09/23 10:26:47;;;;;;;6.38;2.45;;;20.40;99.90;;;;;;5031695;28;20238;-56
2023/09/23 10:29:14;;;;;;;4.00;1.88;;;20.60;99.90;;;;;;5023667;28;20236;-55
2023/09/23 10:31:41;;;;;;;4.13;1.33;;;20.80;99.90;;;;;;5031313;28;20697;-62
2023/09/23 10:34:10;;;;;;;1.85;1.08;;;20.90;99.90;;;;;;5030716;28;20585;-54
2023/09/23 10:36:37;;;;;;;2.38;1.33;;;21.10;99.90;;;;;;5031230;28;20228;-57
2023/09/23 10:39:06;;;;;;;3.40;1.58;;;21.20;99.90;;;;;;5031419;28;20230;-57
2023/09/23 10:41:34;;;;;;;2.80;1.02;;;21.30;99.90;;;;;;5031600;28;20206;-57
2023/09/23 10:44:02;;;;;;;3.15;1.15;;;21.30;99.90;;;;;;5031060;28;20272;-56
2023/09/23 10:46:29;;;;;;;3.42;1.20;;;21.40;99.90;;;;;;5031056;28;20202;-59
2023/09/23 10:48:56;;;;;;;2.95;1.20;;;21.60;99.90;;;;;;5031330;28;20217;-56
2023/09/23 10:51:24;;;;;;;2.10;1.00;;;21.50;99.90;;;;;;5031252;28;20213;-56
2023/09/23 10:53:51;;;;;;;1.50;0.80;;;21.50;99.90;;;;;;5030899;28;20226;-59
2023/09/23 10:56:21;;;;;;;3.58;0.95;;;21.60;99.90;;;;;;5030718;28;20293;-59
2023/09/23 10:58:50;;;;;;;3.13;0.68;;;21.80;99.90;;;;;;5031489;28;20216;-57
2023/09/23 11:01:18;;;;;;;3.05;0.85;;;21.90;99.90;;;;;;5031072;28;20203;-60
2023/09/23 11:03:46;;;;;;;2.47;1.00;;;21.90;99.90;;;;;;5031038;28;20233;-57
2023/09/23 11:06:16;;;;;;;2.47;1.23;;;21.80;99.60;;;;;;5030728;28;20209;-55
2023/09/23 11:08:44;;;;;;;2.35;0.75;;;21.70;99.50;;;;;;5031090;28;20253;-55
2023/09/23 11:11:13;;;;;;;2.67;0.77;;;21.40;99.20;;;;;;5030925;28;20613;-57
2023/09/23 11:13:40;;;;;;;2.35;1.08;;;21.00;99.90;;;;;;5030887;28;20716;-55
2023/09/23 11:16:10;;;;;;;1.83;0.90;;;20.80;99.90;;;;;;5030674;28;20284;-58
2023/09/23 11:18:38;;;;;;;1.95;1.00;;;20.60;99.90;;;;;;5030883;28;20700;-57
2023/09/23 11:21:05;;;;;;;3.05;0.80;;;20.60;99.90;;;;;;5030710;28;20684;-58
2023/09/23 11:23:32;;;;;;;1.90;0.80;;;20.50;99.90;;;;;;5031157;28;20254;-59
2023/09/23 11:26:00;;;;;;;2.38;0.82;;;20.30;99.90;;;;;;5031014;28;20210;-57
2023/09/23 11:28:27;;;;;;;3.63;0.98;;;20.10;99.90;;;;;;5031203;28;20214;-58
2023/09/23 11:30:56;;;;;;;4.38;1.10;;;20.00;99.90;;;;;;5030750;28;20583;-57
2023/09/23 11:33:23;;;;;;;3.95;1.80;;;20.00;99.90;;;;;;5030255;28;20226;-58
2023/09/23 11:35:50;;;;;;;2.08;1.10;;;20.10;99.90;;;;;;5030771;28;20210;-59
2023/09/23 11:38:18;;;;;;;4.55;2.17;;;20.40;99.90;;;;;;5022812;28;20202;-59
2023/09/23 11:40:45;;;;;;;6.88;1.73;;;20.60;99.90;;;;;;5031038;28;20217;-59
2023/09/23 11:43:13;;;;;;;6.57;2.88;;;20.90;99.90;;;;;;5030821;28;20229;-58
2023/09/23 11:45:41;;;;;;;3.25;1.27;;;21.20;99.90;;;;;;5035459;28;20233;-57
2023/09/23 11:48:09;;;;;;;2.53;1.35;;;21.40;99.80;;;;;;5037392;28;20268;-58
2023/09/23 11:50:36;;;;;;;6.72;3.47;;;21.50;98.90;;;;;;5037714;28;20213;-59
2023/09/23 11:53:03;;;;;;;11.35;4.53;;;21.30;99.20;;;;;;5037217;28;20206;-59
2023/09/23 11:55:32;;;;;;;2.33;1.08;;;21.20;99.80;;;;;;5036952;28;20640;-58
2023/09/23 11:57:59;;;;;;;2.28;0.90;;;20.90;99.90;;;;;;5036686;28;20209;-59
2023/09/23 12:00:28;;;;;;;4.47;1.23;;;20.70;99.90;;;;;;5037143;28;20216;-59
2023/09/23 12:02:55;;;;;;;1.20;0.80;;;20.70;99.90;;;;;;5037126;28;20679;-58
2023/09/23 12:05:28;;;;;;;1.98;0.98;;;20.60;99.90;;;;;;5036988;28;20221;-59
2023/09/23 12:07:55;;;;;;;2.28;1.00;;;20.40;99.90;;;;;;5036745;28;20301;-59
2023/09/23 12:10:22;;;;;;;1.50;0.70;;;20.10;99.90;;;;;;5036572;28;20210;-60
2023/09/23 12:12:49;;;;;;;2.17;1.02;;;20.10;99.90;;;;;;5036723;28;20206;-56
2023/09/23 12:15:15;;;;;;;2.75;1.10;;;20.00;99.90;;;;;;5036519;28;20297;-57
2023/09/23 12:17:43;;;;;;;1.90;1.40;;;20.00;99.90;;;;;;5036608;28;20699;-58
2023/09/23 12:20:11;;;;;;;1.95;0.85;;;20.00;99.90;;;;;;5037160;28;20213;-58
2023/09/23 12:22:38;;;;;;;2.40;1.08;;;20.20;99.90;;;;;;5036481;28;20209;-58
2023/09/23 12:25:06;;;;;;;2.17;0.90;;;20.40;99.90;;;;;;5036289;28;20237;-57
2023/09/23 12:27:33;;;;;;;3.47;0.93;;;20.60;99.90;;;;;;5036513;28;20214;-58
2023/09/23 12:30:00;;;;;;;3.67;1.42;;;20.80;99.30;;;;;;5036852;28;20588;-59
2023/09/23 12:32:27;;;;;;;2.22;1.02;;;20.90;99.30;;;;;;5036864;28;20210;-59
2023/09/23 12:34:55;;;;;;;2.15;0.75;;;21.00;98.50;;;;;;5036210;28;20237;-58
2023/09/23 12:37:21;;;;;;;2.53;1.08;;;21.20;98.80;;;;;;5036665;28;20210;-58
2023/09/23 12:39:49;;;;;;;1.27;0.68;;;21.40;99.50;;;;;;5036706;28;20210;-58
2023/09/23 12:42:16;;;;;;;5.35;2.25;;;21.20;98.60;;;;;;5037027;28;20280;-58
2023/09/23 12:44:43;;;;;;;2.92;1.25;;;21.10;98.60;;;;;;5036246;28;20226;-57
2023/09/23 12:47:10;;;;;;;1.30;0.98;;;20.90;98.90;;;;;;5036794;28;20237;-58
2023/09/23 12:49:37;;;;;;;3.50;1.00;;;20.80;99.10;;;;;;5036681;28;20289;-60